createdAt,value
2023-04-07T00:00:04.517Z,59.37
2023-04-07T00:02:39.353Z,58.83
2023-04-07T00:05:07.724Z,59.31
2023-04-07T00:07:39.587Z,58.85
2023-04-07T00:10:17.620Z,59.01
2023-04-07T00:12:45.290Z,58.76
2023-04-07T00:15:12.879Z,59.56
2023-04-07T00:17:40.488Z,59.38
2023-04-07T00:20:09.231Z,59.02
2023-04-07T00:22:36.746Z,59.48
2023-04-07T00:25:04.480Z,59.98
2023-04-07T00:27:33.364Z,60.04
2023-04-07T00:30:01.087Z,59.48
2023-04-07T00:32:28.772Z,59.87
2023-04-07T00:34:56.732Z,60.39
2023-04-07T00:37:25.493Z,60.03
2023-04-07T00:39:53.457Z,60.44
2023-04-07T00:42:21.225Z,60.73
2023-04-07T00:44:50.083Z,60.25
2023-04-07T00:47:17.835Z,59.88
2023-04-07T00:49:45.391Z,60.53
2023-04-07T00:52:13.297Z,60.76
2023-04-07T00:54:43.525Z,60.95
2023-04-07T00:57:11.232Z,61.03
2023-04-07T00:59:39.274Z,60.91
2023-04-07T01:02:17.139Z,61.25
2023-04-07T01:04:50.356Z,61.37
2023-04-07T01:07:23.636Z,61.33
2023-04-07T01:10:05.674Z,61.24
2023-04-07T01:12:45.635Z,61.52
2023-04-07T01:15:16.107Z,61.84
2023-04-07T01:17:52.897Z,61.91
2023-04-07T01:20:23.737Z,61.68
2023-04-07T01:22:59.472Z,61.44
2023-04-07T01:25:58.462Z,61.39
2023-04-07T01:28:50.880Z,61.52
2023-04-07T01:31:19.924Z,61.93
2023-04-07T01:33:49.682Z,62.37
2023-04-07T01:36:17.873Z,63.27
2023-04-07T01:38:46.740Z,62.18
2023-04-07T01:41:16.794Z,62.03
2023-04-07T01:43:46.301Z,62.81
2023-04-07T01:46:14.394Z,62.94
2023-04-07T01:48:43.537Z,63.45
2023-04-07T01:51:17.204Z,63.47
2023-04-07T01:53:45.462Z,62.84
2023-04-07T01:56:13.260Z,63.38
2023-04-07T01:58:40.858Z,63.68
2023-04-07T02:01:11.900Z,63.41
2023-04-07T02:03:49.027Z,64.09
2023-04-07T02:06:20.666Z,63.61
2023-04-07T02:08:53.635Z,63.90
2023-04-07T02:11:23.600Z,63.89
2023-04-07T02:13:55.457Z,64.02
2023-04-07T02:16:23.705Z,63.54
2023-04-07T02:18:54.761Z,64.10
2023-04-07T02:21:23.460Z,63.95
2023-04-07T02:23:51.188Z,63.94
2023-04-07T02:26:18.697Z,64.53
2023-04-07T02:28:46.262Z,63.87
2023-04-07T02:31:14.238Z,64.20
2023-04-07T02:33:41.811Z,64.39
2023-04-07T02:36:10.896Z,63.87
2023-04-07T02:38:38.429Z,63.81
2023-04-07T02:41:06.504Z,63.31
2023-04-07T02:43:34.045Z,63.58
2023-04-07T02:46:01.696Z,63.74
2023-04-07T02:48:30.956Z,64.31
2023-04-07T02:50:58.520Z,64.26
2023-04-07T02:53:27.582Z,63.97
2023-04-07T02:55:55.216Z,64.32
2023-04-07T02:58:23.097Z,63.88
2023-04-07T03:00:51.061Z,64.16
2023-04-07T03:03:24.785Z,63.90
2023-04-07T03:06:18.696Z,64.66
2023-04-07T03:09:01.992Z,64.49
2023-04-07T03:11:29.505Z,64.64
2023-04-07T03:13:59.346Z,64.73
2023-04-07T03:16:28.710Z,64.01
2023-04-07T03:19:09.175Z,64.70
2023-04-07T03:21:40.906Z,64.26
2023-04-07T03:24:10.976Z,64.94
2023-04-07T03:26:38.507Z,64.49
2023-04-07T03:29:11.074Z,64.71
2023-04-07T03:31:41.864Z,65.02
2023-04-07T03:34:09.630Z,64.26
2023-04-07T03:36:37.200Z,64.97
2023-04-07T03:39:06.621Z,65.22
2023-04-07T03:41:35.565Z,64.11
2023-04-07T03:44:03.139Z,64.36
2023-04-07T03:46:33.026Z,64.10
2023-04-07T03:49:01.204Z,63.78
2023-04-07T03:51:30.457Z,64.08
2023-04-07T03:53:59.743Z,63.53
2023-04-07T03:56:42.226Z,64.23
2023-04-07T03:59:10.204Z,64.33
2023-04-07T04:01:46.374Z,64.38
2023-04-07T04:04:16.939Z,63.58
2023-04-07T04:06:44.912Z,63.81
2023-04-07T04:09:21.818Z,63.70
2023-04-07T04:11:51.819Z,63.93
2023-04-07T04:14:19.816Z,63.42
2023-04-07T04:16:58.594Z,63.98
2023-04-07T04:19:46.432Z,64.17
2023-04-07T04:22:22.392Z,63.54
2023-04-07T04:24:53.976Z,63.54
2023-04-07T04:27:25.079Z,64.69
2023-04-07T04:29:59.580Z,64.21
2023-04-07T04:32:36.814Z,64.05
2023-04-07T04:35:04.822Z,64.23
2023-04-07T04:37:35.546Z,64.47
2023-04-07T04:40:09.402Z,65.36
2023-04-07T04:42:39.272Z,65.20
2023-04-07T04:45:09.667Z,64.49
2023-04-07T04:47:38.933Z,65.13
2023-04-07T04:50:09.148Z,64.96
2023-04-07T04:52:39.487Z,64.71
2023-04-07T04:55:10.517Z,64.77
2023-04-07T04:57:40.072Z,65.08
2023-04-07T05:00:15.816Z,64.89
2023-04-07T05:02:46.858Z,64.98
2023-04-07T05:05:16.010Z,64.92
2023-04-07T05:07:44.670Z,64.09
2023-04-07T05:10:14.860Z,64.77
2023-04-07T05:12:49.830Z,64.77
2023-04-07T05:15:17.582Z,64.64
2023-04-07T05:17:50.408Z,64.55
2023-04-07T05:20:23.058Z,64.40
2023-04-07T05:22:51.189Z,64.89
2023-04-07T05:25:21.876Z,64.28
2023-04-07T05:27:54.052Z,64.26
2023-04-07T05:30:21.826Z,64.21
2023-04-07T05:32:49.599Z,64.20
2023-04-07T05:35:28.736Z,63.71
2023-04-07T05:37:58.228Z,63.52
2023-04-07T05:40:26.026Z,63.69
2023-04-07T05:42:55.371Z,63.23
2023-04-07T05:45:24.568Z,63.50
2023-04-07T05:47:52.280Z,63.44
2023-04-07T05:50:27.120Z,62.55
2023-04-07T05:52:56.130Z,62.25
2023-04-07T05:55:27.118Z,62.07
2023-04-07T05:57:57.107Z,62.57
2023-04-07T06:00:28.716Z,62.12
2023-04-07T06:03:04.532Z,66.22
2023-04-07T06:05:43.583Z,63.30
2023-04-07T06:08:12.562Z,60.80
2023-04-07T06:10:41.356Z,60.09
2023-04-07T06:13:10.308Z,60.47
2023-04-07T06:15:37.850Z,60.22
2023-04-07T06:18:05.626Z,59.81
2023-04-07T06:20:33.757Z,59.76
2023-04-07T06:23:01.649Z,59.36
2023-04-07T06:25:29.280Z,59.36
2023-04-07T06:27:57.076Z,59.26
2023-04-07T06:30:26.036Z,58.57
2023-04-07T06:32:53.759Z,58.37
2023-04-07T06:35:22.591Z,58.16
2023-04-07T06:37:50.296Z,57.50
2023-04-07T06:40:18.020Z,57.07
2023-04-07T06:42:45.636Z,56.47
2023-04-07T06:45:23.865Z,56.45
2023-04-07T06:47:52.817Z,56.76
2023-04-07T06:50:22.181Z,56.50
2023-04-07T06:52:49.810Z,55.90
2023-04-07T06:55:17.380Z,55.78
2023-04-07T06:57:45.000Z,56.23
2023-04-07T07:00:13.006Z,55.57
2023-04-07T07:02:40.899Z,55.37
2023-04-07T07:05:11.310Z,54.98
2023-04-07T07:07:38.870Z,54.26
2023-04-07T07:10:07.703Z,53.84
2023-04-07T07:12:35.320Z,53.75
2023-04-07T07:15:03.670Z,54.16
2023-04-07T07:17:31.360Z,53.66
2023-04-07T07:19:58.976Z,53.50
2023-04-07T07:22:27.896Z,53.58
2023-04-07T07:24:55.563Z,52.40
2023-04-07T07:27:23.154Z,51.96
2023-04-07T07:29:50.786Z,50.31
2023-04-07T07:32:18.323Z,51.30
2023-04-07T07:34:46.010Z,51.12
2023-04-07T07:37:13.660Z,50.92
2023-04-07T07:39:42.668Z,50.71
2023-04-07T07:42:10.267Z,50.22
2023-04-07T07:44:37.904Z,49.36
2023-04-07T07:47:05.486Z,49.93
2023-04-07T07:49:33.051Z,49.38
2023-04-07T07:52:01.053Z,49.28
2023-04-07T07:54:28.641Z,48.54
2023-04-07T07:56:57.540Z,48.72
2023-04-07T07:59:25.185Z,49.75
2023-04-07T08:01:52.793Z,50.89
2023-04-07T08:04:20.726Z,50.70
2023-04-07T08:06:48.403Z,50.27
2023-04-07T08:09:15.950Z,50.24
2023-04-07T08:11:43.586Z,51.86
2023-04-07T08:14:12.508Z,50.10
2023-04-07T08:16:40.504Z,49.92
2023-04-07T08:19:08.230Z,49.57
2023-04-07T08:21:35.993Z,48.58
2023-04-07T08:24:03.705Z,48.66
2023-04-07T08:26:31.277Z,47.68
2023-04-07T08:28:59.121Z,47.23
2023-04-07T08:31:28.360Z,47.99
2023-04-07T08:33:58.147Z,47.40
2023-04-07T08:36:26.117Z,47.72
2023-04-07T08:38:53.746Z,46.45
2023-04-07T08:41:28.714Z,46.15
2023-04-07T08:43:58.776Z,46.45
2023-04-07T08:46:28.526Z,46.01
2023-04-07T08:48:58.072Z,46.13
2023-04-07T08:51:33.409Z,46.69
2023-04-07T08:54:07.250Z,46.18
2023-04-07T08:56:35.210Z,45.37
2023-04-07T08:59:03.439Z,44.61
2023-04-07T09:01:33.325Z,44.76
2023-04-07T09:04:03.025Z,45.38
2023-04-07T09:06:31.951Z,44.68
2023-04-07T09:08:59.602Z,44.49
2023-04-07T09:11:27.920Z,44.38
2023-04-07T09:13:56.322Z,44.05
2023-04-07T09:16:24.739Z,43.98
2023-04-07T09:18:54.354Z,43.72
2023-04-07T09:21:21.905Z,43.59
2023-04-07T09:23:51.440Z,44.35
2023-04-07T09:26:24.375Z,44.02
2023-04-07T09:28:55.007Z,44.67
2023-04-07T09:31:22.850Z,43.53
2023-04-07T09:33:51.637Z,44.90
2023-04-07T09:36:20.644Z,44.54
2023-04-07T09:38:48.909Z,43.73
2023-04-07T09:41:17.644Z,43.76
2023-04-07T09:43:47.172Z,44.82
2023-04-07T09:46:16.530Z,43.84
2023-04-07T09:48:45.905Z,42.71
2023-04-07T09:51:15.744Z,41.51
2023-04-07T09:53:47.669Z,41.97
2023-04-07T09:56:17.154Z,42.08
2023-04-07T09:58:46.465Z,41.55
2023-04-07T10:01:16.728Z,41.41
2023-04-07T10:03:46.631Z,42.97
2023-04-07T10:06:14.700Z,41.97
2023-04-07T10:08:45.085Z,41.58
2023-04-07T10:11:12.885Z,42.60
2023-04-07T10:13:41.308Z,41.82
2023-04-07T10:16:09.599Z,42.43
2023-04-07T10:18:38.062Z,42.57
2023-04-07T10:21:07.894Z,42.72
2023-04-07T10:23:50.037Z,42.11
2023-04-07T10:26:20.906Z,42.27
2023-04-07T10:28:54.618Z,41.11
2023-04-07T10:31:24.076Z,42.98
2023-04-07T10:33:53.452Z,42.72
2023-04-07T10:36:21.955Z,42.64
2023-04-07T10:39:22.412Z,44.02
2023-04-07T10:41:51.684Z,43.77
2023-04-07T10:44:46.537Z,43.99
2023-04-07T10:47:14.187Z,42.00
2023-04-07T10:50:18.834Z,43.63
2023-04-07T10:52:47.462Z,43.91
2023-04-07T10:55:34.464Z,42.84
2023-04-07T10:58:15.521Z,42.90
2023-04-07T11:00:43.655Z,43.62
2023-04-07T11:03:13.953Z,42.28
2023-04-07T11:05:41.840Z,43.27
2023-04-07T11:08:09.715Z,43.29
2023-04-07T11:10:39.581Z,43.31
2023-04-07T11:13:08.762Z,43.01
2023-04-07T11:15:40.225Z,44.87
2023-04-07T11:18:10.917Z,46.36
2023-04-07T11:20:47.227Z,46.28
2023-04-07T11:23:15.664Z,46.64
2023-04-07T11:25:46.491Z,45.62
2023-04-07T11:28:14.971Z,46.33
2023-04-07T11:30:53.860Z,46.09
2023-04-07T11:33:22.987Z,46.32
2023-04-07T11:35:52.642Z,47.03
2023-04-07T11:38:20.992Z,45.40
2023-04-07T11:40:50.137Z,44.82
2023-04-07T11:43:19.846Z,44.29
2023-04-07T11:45:47.874Z,44.87
2023-04-07T11:48:28.110Z,43.34
2023-04-07T11:50:55.788Z,43.51
2023-04-07T11:53:28.645Z,42.13
2023-04-07T11:56:09.968Z,42.68
2023-04-07T11:58:38.532Z,43.74
2023-04-07T12:01:08.806Z,42.54
2023-04-07T12:03:38.227Z,43.42
2023-04-07T12:06:07.081Z,42.98
2023-04-07T12:08:39.247Z,41.40
2023-04-07T12:11:09.213Z,41.97
2023-04-07T12:13:37.433Z,42.28
2023-04-07T12:16:05.477Z,42.80
2023-04-07T12:18:33.319Z,42.33
2023-04-07T12:21:01.284Z,42.43
2023-04-07T12:23:28.969Z,43.16
2023-04-07T12:25:56.638Z,43.18
2023-04-07T12:28:25.557Z,42.92
2023-04-07T12:30:53.494Z,43.21
2023-04-07T12:33:21.276Z,42.89
2023-04-07T12:35:49.137Z,43.26
2023-04-07T12:38:16.843Z,44.30
2023-04-07T12:40:44.529Z,44.40
2023-04-07T12:43:12.035Z,43.02
2023-04-07T12:45:41.028Z,42.68
2023-04-07T12:48:08.647Z,44.72
2023-04-07T12:50:36.775Z,45.33
2023-04-07T12:53:05.263Z,44.63
2023-04-07T12:55:35.520Z,44.36
2023-04-07T12:58:03.385Z,45.38
2023-04-07T13:00:31.486Z,45.77
2023-04-07T13:03:00.614Z,46.56
2023-04-07T13:05:29.938Z,45.50
2023-04-07T13:07:57.411Z,46.26
2023-04-07T13:10:25.012Z,47.07
2023-04-07T13:12:53.115Z,46.86
2023-04-07T13:15:20.879Z,47.24
2023-04-07T13:17:48.419Z,46.83
2023-04-07T13:20:19.806Z,47.16
2023-04-07T13:22:54.025Z,48.79
2023-04-07T13:25:31.504Z,48.77
2023-04-07T13:27:59.722Z,48.69
2023-04-07T13:30:27.329Z,48.25
2023-04-07T13:32:54.992Z,48.76
2023-04-07T13:35:24.284Z,48.62
2023-04-07T13:37:51.950Z,49.27
2023-04-07T13:40:19.535Z,50.43
2023-04-07T13:42:47.102Z,50.73
2023-04-07T13:45:14.769Z,51.71
2023-04-07T13:47:42.349Z,52.34
2023-04-07T13:50:10.801Z,53.28
2023-04-07T13:52:39.671Z,52.72
2023-04-07T13:55:08.007Z,52.95
2023-04-07T13:57:35.746Z,53.76
2023-04-07T14:00:03.501Z,54.13
2023-04-07T14:02:36.791Z,54.93
2023-04-07T14:05:04.502Z,55.72
2023-04-07T14:07:32.002Z,55.78
2023-04-07T14:10:01.120Z,56.89
2023-04-07T14:12:28.643Z,58.01
2023-04-07T14:14:57.008Z,59.66
2023-04-07T14:17:24.746Z,58.89
2023-04-07T14:19:52.315Z,59.20
2023-04-07T14:22:19.906Z,58.60
2023-04-07T14:24:47.442Z,58.20
2023-04-07T14:27:20.719Z,58.78
2023-04-07T14:29:48.331Z,59.54
2023-04-07T14:32:16.193Z,60.86
2023-04-07T14:34:43.704Z,62.71
2023-04-07T14:37:12.045Z,64.68
2023-04-07T14:39:39.983Z,63.71
2023-04-07T14:42:07.560Z,63.94
2023-04-07T14:44:36.404Z,66.41
2023-04-07T14:47:03.954Z,66.79
2023-04-07T14:49:31.547Z,65.35
2023-04-07T14:51:59.094Z,63.57
2023-04-07T14:54:26.741Z,63.79
2023-04-07T14:56:54.291Z,63.52
2023-04-07T14:59:21.855Z,62.61
2023-04-07T15:01:52.276Z,62.03
2023-04-07T15:04:19.945Z,60.38
2023-04-07T15:06:47.677Z,62.07
2023-04-07T15:09:15.366Z,63.66
2023-04-07T15:11:42.932Z,65.61
2023-04-07T15:14:10.502Z,65.85
2023-04-07T15:16:38.158Z,65.92
2023-04-07T15:19:07.097Z,66.13
2023-04-07T15:21:34.633Z,67.76
2023-04-07T15:24:02.140Z,70.85
2023-04-07T15:26:29.658Z,70.23
2023-04-07T15:28:57.129Z,70.14
2023-04-07T15:31:26.939Z,69.59
2023-04-07T15:33:54.459Z,68.93
2023-04-07T15:36:23.312Z,67.74
2023-04-07T15:38:50.916Z,69.18
2023-04-07T15:41:18.454Z,68.91
2023-04-07T15:43:45.942Z,71.20
2023-04-07T15:46:13.497Z,71.46
2023-04-07T15:48:41.044Z,72.27
2023-04-07T15:51:08.614Z,72.38
2023-04-07T15:53:37.519Z,72.67
2023-04-07T15:56:05.250Z,75.01
2023-04-07T15:58:32.976Z,75.47
2023-04-07T16:01:01.118Z,75.89
2023-04-07T16:03:29.007Z,77.63
2023-04-07T16:05:56.992Z,76.34
2023-04-07T16:08:24.962Z,77.08
2023-04-07T16:10:53.810Z,78.30
2023-04-07T16:13:21.360Z,78.69
2023-04-07T16:15:48.857Z,78.72
2023-04-07T16:18:16.588Z,78.43
2023-04-07T16:20:44.154Z,78.97
2023-04-07T16:23:12.578Z,80.39
2023-04-07T16:25:40.393Z,82.62
2023-04-07T16:28:09.287Z,81.87
2023-04-07T16:30:37.001Z,81.91
2023-04-07T16:33:04.727Z,82.12
2023-04-07T16:35:32.534Z,81.63
2023-04-07T16:38:03.915Z,82.65
2023-04-07T16:40:31.694Z,83.21
2023-04-07T16:42:59.249Z,83.06
2023-04-07T16:45:28.199Z,82.50
2023-04-07T16:47:55.933Z,84.38
2023-04-07T16:50:23.870Z,83.70
2023-04-07T16:52:51.467Z,85.03
2023-04-07T16:55:19.102Z,85.53
2023-04-07T16:57:46.689Z,85.65
2023-04-07T17:00:14.747Z,85.93
2023-04-07T17:02:43.819Z,85.37
2023-04-07T17:05:11.421Z,85.92
2023-04-07T17:07:38.944Z,87.36
2023-04-07T17:10:07.585Z,86.80
2023-04-07T17:12:35.560Z,87.89
2023-04-07T17:15:03.065Z,87.99
2023-04-07T17:17:30.678Z,88.43
2023-04-07T17:19:59.811Z,88.89
2023-04-07T17:22:27.329Z,88.76
2023-04-07T17:24:54.831Z,89.69
2023-04-07T17:27:22.363Z,90.05
2023-04-07T17:29:49.887Z,90.33
2023-04-07T17:32:17.421Z,93.52
2023-04-07T17:34:44.964Z,93.00
2023-04-07T17:37:13.843Z,93.92
2023-04-07T17:39:41.619Z,93.65
2023-04-07T17:42:10.745Z,94.76
2023-04-07T17:44:38.311Z,94.48
2023-04-07T17:47:05.869Z,94.60
2023-04-07T17:49:33.594Z,95.33
2023-04-07T17:52:01.201Z,95.71
2023-04-07T17:54:30.084Z,95.75
2023-04-07T17:56:57.585Z,96.49
2023-04-07T17:59:25.157Z,96.45
2023-04-07T18:01:52.730Z,98.93
2023-04-07T18:04:21.041Z,98.30
2023-04-07T18:06:48.904Z,97.45
2023-04-07T18:09:16.461Z,98.03
2023-04-07T18:11:45.330Z,98.79
2023-04-07T18:14:12.853Z,98.90
2023-04-07T18:16:40.361Z,98.72
2023-04-07T18:19:07.863Z,98.75
2023-04-07T18:21:36.291Z,99.10
2023-04-07T18:24:03.847Z,99.14
2023-04-07T18:26:31.794Z,99.11
2023-04-07T18:29:01.416Z,99.35
2023-04-07T18:31:29.071Z,100.00
2023-04-07T18:33:56.569Z,100.00
2023-04-07T18:36:27.028Z,100.00
2023-04-07T18:38:54.655Z,100.00
2023-04-07T18:41:22.235Z,99.82
2023-04-07T18:43:49.950Z,100.00
2023-04-07T18:46:19.155Z,99.62
2023-04-07T18:48:46.712Z,100.00
2023-04-07T18:51:14.521Z,100.00
2023-04-07T18:53:42.072Z,100.00
2023-04-07T18:56:09.733Z,100.00
2023-04-07T18:58:43.611Z,100.00
2023-04-07T19:01:11.518Z,100.00
2023-04-07T19:03:40.624Z,100.00
2023-04-07T19:06:08.615Z,100.00
2023-04-07T19:08:36.998Z,100.00
2023-04-07T19:11:05.394Z,100.00
2023-04-07T19:13:33.028Z,100.00
2023-04-07T19:16:00.583Z,100.00
2023-04-07T19:18:29.201Z,100.00
2023-04-07T19:20:58.166Z,100.00
2023-04-07T19:23:26.014Z,100.00
2023-04-07T19:25:53.716Z,100.00
2023-04-07T19:28:21.753Z,100.00
2023-04-07T19:30:49.267Z,100.00
2023-04-07T19:33:16.849Z,100.00
2023-04-07T19:35:44.433Z,99.67
2023-04-07T19:38:13.291Z,99.13
2023-04-07T19:40:40.814Z,99.38
2023-04-07T19:43:08.371Z,98.69
2023-04-07T19:45:36.604Z,98.52
2023-04-07T19:48:04.321Z,98.68
2023-04-07T19:50:32.041Z,99.50
2023-04-07T19:52:59.548Z,98.25
2023-04-07T19:55:29.878Z,98.15
2023-04-07T19:57:57.462Z,97.56
2023-04-07T20:00:25.086Z,97.70
2023-04-07T20:02:52.914Z,98.38
2023-04-07T20:05:21.285Z,98.22
2023-04-07T20:07:48.829Z,98.32
2023-04-07T20:10:16.628Z,99.36
2023-04-07T20:12:45.575Z,99.48
2023-04-07T20:15:13.233Z,99.26
2023-04-07T20:17:41.137Z,98.62
2023-04-07T20:20:09.315Z,100.00
2023-04-07T20:22:36.897Z,100.00
2023-04-07T20:25:05.305Z,100.00
2023-04-07T20:27:33.471Z,100.00
2023-04-07T20:30:02.692Z,100.00
2023-04-07T20:32:30.284Z,100.00
2023-04-07T20:34:57.835Z,100.00
2023-04-07T20:37:26.174Z,100.00
2023-04-07T20:39:55.423Z,100.00
2023-04-07T20:42:23.099Z,100.00
2023-04-07T20:44:50.781Z,100.00
2023-04-07T20:47:19.601Z,100.00
2023-04-07T20:49:47.168Z,100.00
2023-04-07T20:52:14.741Z,100.00
2023-04-07T20:54:44.730Z,100.00
2023-04-07T20:57:12.282Z,100.00
2023-04-07T20:59:39.811Z,100.00
2023-04-07T21:02:08.024Z,100.00
2023-04-07T21:04:37.600Z,100.00
2023-04-07T21:07:05.277Z,100.00
2023-04-07T21:09:32.832Z,100.00
2023-04-07T21:12:03.291Z,100.00
2023-04-07T21:14:31.581Z,100.00
2023-04-07T21:16:59.308Z,100.00
2023-04-07T21:19:26.810Z,100.00
2023-04-07T21:21:55.706Z,100.00
2023-04-07T21:24:23.280Z,100.00
2023-04-07T21:26:53.792Z,100.00
2023-04-07T21:29:21.792Z,100.00
2023-04-07T21:31:49.438Z,100.00
2023-04-07T21:34:17.077Z,100.00
2023-04-07T21:36:44.724Z,100.00
2023-04-07T21:39:13.697Z,100.00
2023-04-07T21:41:41.853Z,100.00
2023-04-07T21:44:11.112Z,100.00
2023-04-07T21:46:38.724Z,100.00
2023-04-07T21:49:06.309Z,100.00
2023-04-07T21:51:34.179Z,100.00
2023-04-07T21:54:01.921Z,100.00
2023-04-07T21:56:30.791Z,100.00
2023-04-07T21:58:58.428Z,100.00
2023-04-07T22:01:27.009Z,100.00
2023-04-07T22:03:54.956Z,100.00
2023-04-07T22:06:22.819Z,100.00
2023-04-07T22:09:00.483Z,100.00
2023-04-07T22:11:28.947Z,100.00
2023-04-07T22:13:57.910Z,100.00
2023-04-07T22:16:25.632Z,100.00
2023-04-07T22:18:53.264Z,100.00
2023-04-07T22:21:21.117Z,100.00
2023-04-07T22:23:50.258Z,100.00
2023-04-07T22:26:18.348Z,100.00
2023-04-07T22:28:46.414Z,100.00
2023-04-07T22:31:15.394Z,100.00
2023-04-07T22:33:43.065Z,100.00
2023-04-07T22:36:10.727Z,100.00
2023-04-07T22:38:38.439Z,100.00
2023-04-07T22:41:06.226Z,100.00
2023-04-07T22:43:33.818Z,100.00
2023-04-07T22:46:01.466Z,100.00
2023-04-07T22:48:30.679Z,100.00
2023-04-07T22:50:58.372Z,100.00
2023-04-07T22:53:26.040Z,100.00
2023-04-07T22:55:53.711Z,100.00
2023-04-07T22:58:21.453Z,100.00
2023-04-07T23:00:49.030Z,100.00
2023-04-07T23:03:17.040Z,100.00
2023-04-07T23:05:45.989Z,100.00
2023-04-07T23:08:13.585Z,100.00
2023-04-07T23:10:41.123Z,100.00
2023-04-07T23:13:08.723Z,100.00
2023-04-07T23:15:36.688Z,100.00
2023-04-07T23:18:04.358Z,100.00
2023-04-07T23:20:31.929Z,100.00
2023-04-07T23:23:00.952Z,100.00
2023-04-07T23:25:28.678Z,100.00
2023-04-07T23:27:56.402Z,100.00
2023-04-07T23:30:23.986Z,100.00
2023-04-07T23:32:51.719Z,100.00
2023-04-07T23:35:19.623Z,100.00
2023-04-07T23:37:47.232Z,100.00
2023-04-07T23:40:16.284Z,100.00
2023-04-07T23:42:43.864Z,100.00
2023-04-07T23:45:12.194Z,100.00
2023-04-07T23:47:39.836Z,100.00
2023-04-07T23:50:08.849Z,100.00
2023-04-07T23:52:36.525Z,100.00
2023-04-07T23:55:04.351Z,100.00
2023-04-07T23:57:33.271Z,100.00
